Strona główna
METAR-TAF:

METAR-TAF

Lotnisko :

Port lotniczy Londyn-Gatwick

Londyn-Gatwick, Anglia

Szerokość geograficzna: 51-09N, Długość geograficzna: 000-11W, wysokość: 62 m

Aktualna obserwacja pogody

Raport powstał 43 minut temu, godzina 01:20 UTC
Wiatr 3 kt z kierunków zmiennych
Temperatura 1°C
Wilgotność 86%
Ciśnienie 1027 hPa
Widzialność 10 km lub więcej

METAR: EGKK 010120Z AUTO VRB03KT 9999 NCD 01/M01 Q1027

czas: 03:03 (02:03 UTC)

Prognoza

Raport powstał 3 godziny i 8 minut temu, godzina 22:55 UTC
Prognoza ważna od 01 godzina 00 UTC do 02 godzina 06 UTC
Wiatr 4 kt od północno-północny wschód
Widzialność 10 km lub więcej
Rozproszone chmury na wysokości 4000 ft
Stopniowe zmiany
od 01 godzina 12 UTC do 01 godzina 15 UTC
Wiatr 10 kt od zachodnio-północny zachód

TAF: EGKK 312255Z 0100/0206 02004KT 9999 SCT040 BECMG 0112/0115 30010KT

Obserwacja i prognoza pogody dla ponad 4000 lotnisk (raport METAR i TAF).

Dostępne stacje oznaczono żółtymi i czerwonymi punktami na mapie.

Najedź kursorem aby zobaczyć nazwę stacji.

Kliknij aby zobaczyć obserwacje i prognozy pogody.

Aby zmienić mapę: kliknij na zielony przycisk z czarnym krzyżykiem, aby powiększyć; na zielony przycisk z myślnikiem, aby pomniejszyć; na zielone strzałki, aby przejść do map sąsiednich.


METAR-TAF: